createdAt,value
2019-01-20T00:00:52.204Z,-0.40
2019-01-20T00:03:19.952Z,-0.40
2019-01-20T00:05:47.613Z,-0.30
2019-01-20T00:08:15.344Z,-0.30
2019-01-20T00:10:42.981Z,-0.40
2019-01-20T00:13:10.762Z,-0.40
2019-01-20T00:15:38.524Z,-0.40
2019-01-20T00:18:06.195Z,-0.40
2019-01-20T00:20:33.854Z,-0.40
2019-01-20T00:23:01.494Z,-0.40
2019-01-20T00:25:29.124Z,-0.30
2019-01-20T00:27:56.769Z,-0.20
2019-01-20T00:30:24.498Z,-0.40
2019-01-20T00:32:52.215Z,-0.40
2019-01-20T00:35:19.900Z,-0.40
2019-01-20T00:37:47.560Z,-0.50
2019-01-20T00:40:15.437Z,-0.50
2019-01-20T00:42:43.606Z,-0.50
2019-01-20T00:45:13.281Z,-0.60
2019-01-20T00:47:40.969Z,-0.60
2019-01-20T00:50:09.586Z,-0.60
2019-01-20T00:52:37.213Z,-0.70
2019-01-20T00:55:06.576Z,-0.70
2019-01-20T00:57:34.194Z,-0.70
2019-01-20T01:00:01.841Z,-0.70
2019-01-20T01:02:30.770Z,-0.70
2019-01-20T01:04:58.439Z,-0.70
2019-01-20T01:07:26.101Z,-0.70
2019-01-20T01:09:53.772Z,-0.70
2019-01-20T01:12:21.471Z,-0.70
2019-01-20T01:14:49.108Z,-0.80
2019-01-20T01:17:16.786Z,-0.80
2019-01-20T01:19:44.472Z,-0.70
2019-01-20T01:22:12.124Z,-0.80
2019-01-20T01:24:39.808Z,-0.80
2019-01-20T01:27:07.489Z,-0.80
2019-01-20T01:29:35.152Z,-0.70
2019-01-20T01:32:02.801Z,-0.70
2019-01-20T01:34:30.452Z,-0.50
2019-01-20T01:36:58.099Z,-0.60
2019-01-20T01:39:25.745Z,-0.60
2019-01-20T01:42:09.532Z,-0.60
2019-01-20T01:44:49.954Z,-0.60
2019-01-20T01:47:30.292Z,-0.80
2019-01-20T01:50:10.374Z,-0.60
2019-01-20T01:52:38.020Z,-0.60
2019-01-20T01:55:18.385Z,-0.50
2019-01-20T02:01:01.897Z,-0.70
2019-01-20T02:03:41.801Z,-0.70
2019-01-20T02:06:22.215Z,-0.50
2019-01-20T02:09:02.672Z,-0.40
2019-01-20T02:11:46.927Z,-0.60
2019-01-20T02:14:26.841Z,-0.50
2019-01-20T02:17:06.894Z,-0.40
2019-01-20T02:19:46.892Z,-0.40
2019-01-20T02:22:26.837Z,-0.30
2019-01-20T02:25:07.092Z,-0.30
2019-01-20T02:27:47.348Z,-0.30
2019-01-20T02:30:27.190Z,-0.30
2019-01-20T02:33:07.277Z,-0.30
2019-01-20T02:35:47.399Z,-0.20
2019-01-20T02:38:30.098Z,-0.10
2019-01-20T02:41:10.088Z,-0.30
2019-01-20T02:43:50.198Z,-0.40
2019-01-20T02:46:30.113Z,-0.30
2019-01-20T02:49:10.024Z,-0.40
2019-01-20T02:51:50.051Z,-0.30
2019-01-20T02:54:30.169Z,-0.40
2019-01-20T02:57:10.226Z,-0.40
2019-01-20T02:59:50.338Z,-0.40
2019-01-20T03:02:30.305Z,-0.20
2019-01-20T03:05:10.413Z,-0.40
2019-01-20T03:07:50.414Z,-0.40
2019-01-20T03:10:30.326Z,-0.40
2019-01-20T03:13:10.422Z,-0.30
2019-01-20T03:15:50.405Z,-0.40
2019-01-20T03:18:30.649Z,-0.40
2019-01-20T03:21:10.582Z,-0.40
2019-01-20T03:23:50.599Z,-0.40
2019-01-20T03:26:30.646Z,-0.40
2019-01-20T03:29:10.884Z,-0.40
2019-01-20T03:31:51.047Z,-0.40
2019-01-20T03:34:34.144Z,-0.40
2019-01-20T03:37:14.449Z,-0.40
2019-01-20T03:39:54.678Z,-0.40
2019-01-20T03:42:34.576Z,-0.40
2019-01-20T03:45:14.781Z,-0.20
2019-01-20T03:47:54.956Z,-0.30
2019-01-20T03:50:35.082Z,-0.40
2019-01-20T03:53:15.189Z,-0.50
2019-01-20T03:55:55.505Z,-0.50
2019-01-20T03:58:35.537Z,-0.40
2019-01-20T04:01:15.683Z,-0.30
2019-01-20T04:03:55.791Z,-0.40
2019-01-20T04:06:37.062Z,-0.30
2019-01-20T04:09:17.022Z,-0.30
2019-01-20T04:11:57.225Z,-0.40
2019-01-20T04:14:57.396Z,-0.50
2019-01-20T04:17:39.560Z,-0.30
2019-01-20T04:20:21.649Z,-0.30
2019-01-20T04:23:02.895Z,-0.40
2019-01-20T04:25:42.834Z,-0.30
2019-01-20T04:28:23.025Z,-0.40
2019-01-20T04:31:03.014Z,-0.40
2019-01-20T04:33:42.997Z,-0.30
2019-01-20T04:36:23.129Z,-0.30
2019-01-20T04:39:03.226Z,-0.30
2019-01-20T04:41:44.342Z,-0.20
2019-01-20T04:44:24.506Z,-0.40
2019-01-20T04:47:04.667Z,-0.30
2019-01-20T04:49:44.750Z,-0.40
2019-01-20T04:52:24.837Z,-0.50
2019-01-20T04:55:05.013Z,-0.40
2019-01-20T05:00:46.674Z,-0.50
2019-01-20T05:03:26.955Z,-0.60
2019-01-20T05:06:07.143Z,-0.40
2019-01-20T05:08:47.292Z,-0.50
2019-01-20T05:11:27.360Z,-0.50
2019-01-20T05:14:07.387Z,-0.50
2019-01-20T05:16:47.481Z,-0.50
2019-01-20T05:19:27.469Z,-0.50
2019-01-20T05:22:07.603Z,-0.60
2019-01-20T05:24:47.521Z,-0.50
2019-01-20T05:27:27.629Z,-0.50
2019-01-20T05:30:10.870Z,-0.60
2019-01-20T05:32:51.490Z,-0.60
2019-01-20T05:35:31.655Z,-0.60
2019-01-20T05:38:11.722Z,-0.50
2019-01-20T05:40:52.049Z,-0.60
2019-01-20T05:43:32.265Z,-0.50
2019-01-20T05:46:12.424Z,-0.60
2019-01-20T05:48:52.427Z,-0.60
2019-01-20T05:51:32.566Z,-0.50
2019-01-20T05:54:13.738Z,-0.60
2019-01-20T05:56:53.759Z,-0.60
2019-01-20T05:59:34.129Z,-0.50
2019-01-20T06:02:14.380Z,-0.60
2019-01-20T06:04:54.600Z,-0.70
2019-01-20T06:07:34.712Z,-0.60
2019-01-20T06:10:14.761Z,-0.70
2019-01-20T06:12:54.744Z,-0.70
2019-01-20T06:15:36.060Z,-0.90
2019-01-20T06:18:16.087Z,-0.80
2019-01-20T06:20:56.164Z,-0.80
2019-01-20T06:23:36.245Z,-0.80
2019-01-20T06:26:16.429Z,-1.00
2019-01-20T06:28:56.515Z,-0.80
2019-01-20T06:31:36.822Z,-0.90
2019-01-20T06:34:16.897Z,-1.10
2019-01-20T06:36:57.030Z,-0.80
2019-01-20T06:39:37.381Z,-1.00
2019-01-20T06:42:17.413Z,-1.10
2019-01-20T06:44:57.608Z,-1.10
2019-01-20T06:47:40.822Z,-1.00
2019-01-20T06:50:21.157Z,-1.00
2019-01-20T06:53:01.363Z,-1.10
2019-01-20T06:55:41.479Z,-1.10
2019-01-20T06:58:21.522Z,-1.10
2019-01-20T07:01:01.590Z,-1.10
2019-01-20T07:03:41.591Z,-1.10
2019-01-20T07:06:21.670Z,-1.10
2019-01-20T07:09:01.710Z,-1.10
2019-01-20T07:11:43.845Z,-1.10
2019-01-20T07:14:24.946Z,-1.00
2019-01-20T07:17:05.068Z,-1.00
2019-01-20T07:19:45.084Z,-1.00
2019-01-20T07:22:25.149Z,-1.00
2019-01-20T07:25:05.334Z,-1.00
2019-01-20T07:27:45.334Z,-1.00
2019-01-20T07:30:25.426Z,-1.00
2019-01-20T07:33:05.454Z,-1.00
2019-01-20T07:35:45.557Z,-1.00
2019-01-20T07:38:25.714Z,-0.90
2019-01-20T07:41:05.888Z,-0.90
2019-01-20T07:43:46.073Z,-0.90
2019-01-20T07:46:29.585Z,-0.90
2019-01-20T07:49:08.010Z,-0.90
2019-01-20T07:51:46.337Z,-0.80
2019-01-20T07:54:26.993Z,-0.80
2019-01-20T07:57:06.984Z,-0.80
2019-01-20T07:59:47.311Z,-0.80
2019-01-20T08:02:27.335Z,-0.70
2019-01-20T08:05:07.557Z,-0.70
2019-01-20T08:07:47.760Z,-0.70
2019-01-20T08:10:27.881Z,-0.70
2019-01-20T08:13:08.957Z,-0.80
2019-01-20T08:15:49.265Z,-0.60
2019-01-20T08:18:29.482Z,-0.60
2019-01-20T08:21:09.645Z,-0.60
2019-01-20T08:23:49.853Z,-0.70
2019-01-20T08:26:29.975Z,-0.50
2019-01-20T08:29:10.172Z,-0.60
2019-01-20T08:31:50.321Z,-0.60
2019-01-20T08:34:30.447Z,-0.40
2019-01-20T08:37:10.488Z,-0.50
2019-01-20T08:39:50.713Z,-0.10
2019-01-20T08:42:30.897Z,-0.40
2019-01-20T08:45:11.066Z,-0.40
2019-01-20T08:47:51.031Z,-0.40
2019-01-20T08:50:34.256Z,-0.20
2019-01-20T08:53:14.392Z,-0.20
2019-01-20T08:55:54.522Z,0.00
2019-01-20T08:58:34.695Z,-0.20
2019-01-20T09:01:14.865Z,-0.10
2019-01-20T09:04:14.382Z,-0.10
2019-01-20T09:07:14.630Z,0.00
2019-01-20T09:31:19.824Z,0.30
2019-01-20T09:34:19.997Z,0.30
2019-01-20T09:51:25.043Z,0.50
2019-01-20T09:54:24.401Z,0.60
2019-01-20T10:08:36.702Z,1.10
2019-01-20T10:32:13.712Z,1.20
2019-01-20T10:38:22.558Z,1.40
2019-01-20T10:58:39.218Z,1.70
2019-01-20T11:01:19.483Z,1.80
2019-01-20T11:07:41.465Z,1.90
2019-01-20T11:10:21.553Z,2.00
2019-01-20T11:19:43.693Z,2.00
2019-01-20T11:22:23.831Z,2.10
2019-01-20T11:25:03.912Z,2.00
2019-01-20T11:27:44.861Z,2.00
2019-01-20T11:30:44.380Z,2.00
2019-01-20T11:33:24.285Z,2.00
2019-01-20T11:36:04.301Z,2.20
2019-01-20T11:38:44.334Z,2.20
2019-01-20T11:41:12.091Z,2.10
2019-01-20T11:43:52.349Z,2.00
2019-01-20T11:46:32.437Z,2.10
2019-01-20T11:49:12.512Z,2.00
2019-01-20T11:51:52.784Z,2.00
2019-01-20T11:54:52.571Z,2.10
2019-01-20T12:08:45.316Z,2.10
2019-01-20T12:11:25.405Z,2.10
2019-01-20T12:17:51.977Z,1.90
2019-01-20T12:20:51.518Z,2.10
2019-01-20T12:23:32.232Z,2.00
2019-01-20T12:26:12.647Z,2.00
2019-01-20T12:28:52.772Z,2.20
2019-01-20T12:31:32.964Z,2.20
2019-01-20T12:34:13.172Z,2.30
2019-01-20T12:36:53.760Z,2.20
2019-01-20T12:39:34.754Z,2.20
2019-01-20T12:42:15.035Z,2.20
2019-01-20T12:48:24.389Z,2.30
2019-01-20T12:51:28.513Z,2.40
2019-01-20T12:54:08.179Z,2.20
2019-01-20T12:57:07.690Z,2.40
2019-01-20T12:59:48.270Z,2.20
2019-01-20T13:02:28.217Z,2.30
2019-01-20T13:05:27.718Z,2.40
2019-01-20T13:11:49.273Z,2.40
2019-01-20T13:14:29.318Z,2.30
2019-01-20T13:20:38.292Z,2.30
2019-01-20T13:23:18.879Z,2.30
2019-01-20T13:25:58.908Z,2.40
2019-01-20T13:28:39.120Z,2.60
2019-01-20T13:31:38.687Z,2.40
2019-01-20T13:38:02.537Z,2.70
2019-01-20T13:41:02.386Z,2.50
2019-01-20T13:43:42.171Z,2.60
2019-01-20T13:46:10.033Z,2.60
2019-01-20T13:49:25.601Z,2.70
2019-01-20T13:52:05.693Z,2.60
2019-01-20T13:54:33.369Z,2.50
2019-01-20T13:57:46.492Z,2.60
2019-01-20T14:00:27.169Z,2.60
2019-01-20T14:03:07.508Z,2.70
2019-01-20T14:09:34.686Z,2.60
2019-01-20T14:12:14.708Z,2.70
2019-01-20T14:14:55.188Z,2.50
2019-01-20T14:17:35.124Z,2.70
2019-01-20T14:27:46.717Z,2.60
2019-01-20T14:30:26.796Z,2.60
2019-01-20T14:33:06.852Z,2.50
2019-01-20T14:35:46.821Z,2.60
2019-01-20T14:38:27.085Z,2.60
2019-01-20T14:41:07.176Z,2.90
2019-01-20T14:43:47.288Z,2.80
2019-01-20T14:46:27.729Z,2.80
2019-01-20T14:49:07.789Z,2.90
2019-01-20T14:51:47.916Z,2.90
2019-01-20T14:54:27.969Z,2.90
2019-01-20T14:57:08.189Z,2.90
2019-01-20T14:59:48.264Z,2.80
2019-01-20T15:02:28.508Z,3.00
2019-01-20T15:05:28.042Z,3.00
2019-01-20T15:08:08.644Z,2.80
2019-01-20T15:10:48.631Z,2.90
2019-01-20T15:13:28.817Z,2.70
2019-01-20T15:16:09.074Z,2.80
2019-01-20T15:18:49.496Z,2.60
2019-01-20T15:21:29.799Z,2.80
2019-01-20T15:24:09.954Z,2.80
2019-01-20T15:26:50.257Z,3.00
2019-01-20T15:29:30.390Z,3.00
2019-01-20T15:32:13.426Z,2.80
2019-01-20T15:34:53.539Z,2.70
2019-01-20T15:37:33.805Z,2.60
2019-01-20T15:40:13.674Z,2.60
2019-01-20T15:42:53.845Z,2.70
2019-01-20T15:45:34.289Z,2.50
2019-01-20T15:48:14.490Z,2.60
2019-01-20T15:50:54.560Z,2.60
2019-01-20T15:53:34.617Z,2.80
2019-01-20T15:56:14.786Z,2.60
2019-01-20T15:58:55.934Z,2.60
2019-01-20T16:01:36.252Z,2.50
2019-01-20T16:04:16.157Z,2.50
2019-01-20T16:06:56.439Z,2.60
2019-01-20T16:09:36.297Z,2.70
2019-01-20T16:12:16.300Z,2.70
2019-01-20T16:14:56.588Z,2.70
2019-01-20T16:17:36.683Z,2.80
2019-01-20T16:20:16.756Z,2.60
2019-01-20T16:22:56.720Z,2.70
2019-01-20T16:25:26.642Z,2.60
2019-01-20T16:28:06.782Z,2.50
2019-01-20T16:30:46.743Z,2.50
2019-01-20T16:33:27.029Z,2.70
2019-01-20T16:36:09.285Z,2.60
2019-01-20T16:38:49.217Z,2.60
2019-01-20T16:41:29.724Z,2.60
2019-01-20T16:43:57.440Z,2.70
2019-01-20T16:46:25.153Z,2.60
2019-01-20T16:48:53.468Z,2.50
2019-01-20T16:51:21.087Z,2.60
2019-01-20T16:53:48.729Z,2.60
2019-01-20T16:56:16.392Z,2.50
2019-01-20T16:58:44.013Z,2.50
2019-01-20T17:01:11.666Z,2.60
2019-01-20T17:03:39.341Z,2.50
2019-01-20T17:06:06.981Z,2.50
2019-01-20T17:08:34.650Z,2.60
2019-01-20T17:11:02.375Z,2.50
2019-01-20T17:13:30.015Z,2.60
2019-01-20T17:15:58.652Z,2.60
2019-01-20T17:18:26.338Z,2.60
2019-01-20T17:20:54.067Z,2.70
2019-01-20T17:23:21.722Z,2.70
2019-01-20T17:25:49.373Z,2.80
2019-01-20T17:28:17.012Z,2.80
2019-01-20T17:30:44.749Z,2.80
2019-01-20T17:33:13.024Z,2.70
2019-01-20T17:35:40.683Z,2.70
2019-01-20T17:38:08.521Z,2.70
2019-01-20T17:40:36.266Z,2.70
2019-01-20T17:43:05.777Z,2.70
2019-01-20T17:45:36.041Z,2.80
2019-01-20T17:48:03.854Z,2.90
2019-01-20T17:50:36.644Z,2.80
2019-01-20T17:53:06.782Z,2.80
2019-01-20T17:55:34.625Z,2.90
2019-01-20T17:58:02.380Z,2.80
2019-01-20T18:00:34.164Z,2.70
2019-01-20T18:03:01.930Z,2.80
2019-01-20T18:05:42.003Z,2.90
2019-01-20T18:08:21.849Z,2.80
2019-01-20T18:11:01.898Z,2.90
2019-01-20T18:13:41.981Z,2.90
2019-01-20T18:16:22.245Z,2.70
2019-01-20T18:19:02.278Z,2.70
2019-01-20T18:21:42.714Z,2.70
2019-01-20T18:24:22.949Z,2.80
2019-01-20T18:26:51.664Z,2.70
2019-01-20T18:29:19.313Z,2.80
2019-01-20T18:31:46.919Z,2.80
2019-01-20T18:34:14.569Z,2.80
2019-01-20T18:36:42.215Z,2.90
2019-01-20T18:39:09.902Z,2.90
2019-01-20T18:41:37.665Z,2.90
2019-01-20T18:44:05.288Z,2.90
2019-01-20T18:46:33.024Z,2.90
2019-01-20T18:49:02.678Z,3.00
2019-01-20T18:51:30.336Z,3.00
2019-01-20T18:53:57.998Z,3.00
2019-01-20T18:56:25.700Z,3.00
2019-01-20T18:58:53.337Z,3.00
2019-01-20T19:01:20.982Z,3.00
2019-01-20T19:03:48.918Z,3.00
2019-01-20T19:06:16.640Z,2.90
2019-01-20T19:08:44.323Z,2.90
2019-01-20T19:11:13.117Z,2.90
2019-01-20T19:13:40.792Z,2.90
2019-01-20T19:16:09.005Z,2.90
2019-01-20T19:18:36.942Z,2.90
2019-01-20T19:21:04.599Z,3.00
2019-01-20T19:23:33.253Z,3.00
2019-01-20T19:26:01.109Z,2.90
2019-01-20T19:28:28.804Z,2.80
2019-01-20T19:30:56.433Z,2.80
2019-01-20T19:33:24.113Z,2.80
2019-01-20T19:35:51.752Z,2.70
2019-01-20T19:38:19.361Z,2.70
2019-01-20T19:40:47.298Z,2.60
2019-01-20T19:43:14.972Z,2.50
2019-01-20T19:45:42.688Z,2.50
2019-01-20T19:48:13.145Z,2.50
2019-01-20T19:50:40.735Z,2.50
2019-01-20T19:53:08.369Z,2.60
2019-01-20T19:55:36.049Z,2.70
2019-01-20T19:58:04.017Z,2.60
2019-01-20T20:00:32.213Z,2.50
2019-01-20T20:02:59.989Z,2.50
2019-01-20T20:05:28.246Z,2.50
2019-01-20T20:07:56.527Z,2.50
2019-01-20T20:10:25.826Z,2.30
2019-01-20T20:12:56.268Z,2.30
2019-01-20T20:15:24.865Z,2.30
2019-01-20T20:17:52.527Z,2.30
2019-01-20T20:20:22.022Z,2.20
2019-01-20T20:22:52.226Z,2.20
2019-01-20T20:25:20.540Z,2.10
2019-01-20T20:27:48.347Z,2.10
2019-01-20T20:30:25.478Z,2.10
2019-01-20T20:32:53.162Z,2.10
2019-01-20T20:35:21.232Z,2.20
2019-01-20T20:37:48.856Z,2.20
2019-01-20T20:40:17.132Z,2.20
2019-01-20T20:42:44.878Z,2.20
2019-01-20T20:45:16.117Z,2.20
2019-01-20T20:47:56.952Z,2.20
2019-01-20T20:50:24.609Z,2.30
2019-01-20T20:53:11.799Z,2.50
2019-01-20T20:55:51.798Z,2.40
2019-01-20T20:58:31.905Z,2.30
2019-01-20T21:01:12.005Z,2.20
2019-01-20T21:03:52.214Z,2.10
2019-01-20T21:06:32.343Z,2.00
2019-01-20T21:09:12.435Z,1.80
2019-01-20T21:11:52.753Z,1.90
2019-01-20T21:14:32.753Z,1.80
2019-01-20T21:17:12.994Z,1.80
2019-01-20T21:23:39.493Z,1.70
2019-01-20T21:26:19.753Z,1.80
2019-01-20T21:28:59.792Z,1.80
2019-01-20T21:31:39.829Z,1.70
2019-01-20T21:34:07.532Z,1.50
2019-01-20T21:36:47.822Z,1.60
2019-01-20T21:39:28.286Z,1.50
2019-01-20T21:42:08.538Z,1.40
2019-01-20T21:44:48.839Z,1.50
2019-01-20T21:47:28.814Z,1.60
2019-01-20T21:50:08.945Z,1.40
2019-01-20T21:52:49.060Z,1.40
2019-01-20T21:55:30.292Z,1.20
2019-01-20T21:58:10.561Z,1.10
2019-01-20T22:00:50.482Z,1.20
2019-01-20T22:03:31.541Z,1.20
2019-01-20T22:06:11.487Z,1.10
2019-01-20T22:08:51.620Z,1.10
2019-01-20T22:11:31.685Z,1.00
2019-01-20T22:14:11.896Z,1.00
2019-01-20T22:16:52.935Z,1.00
2019-01-20T22:19:34.978Z,0.80
2019-01-20T22:22:15.292Z,0.90
2019-01-20T22:24:55.435Z,0.90
2019-01-20T22:27:35.486Z,0.90
2019-01-20T22:30:15.516Z,0.90
2019-01-20T22:32:55.389Z,0.90
2019-01-20T22:35:35.535Z,0.90
2019-01-20T22:38:15.664Z,0.90
2019-01-20T22:40:55.907Z,0.80
2019-01-20T22:43:35.735Z,0.80
2019-01-20T22:46:15.938Z,0.70
2019-01-20T22:48:56.026Z,0.80
2019-01-20T22:51:36.049Z,0.70
2019-01-20T22:54:15.838Z,0.50
2019-01-20T22:56:56.153Z,0.60
2019-01-20T22:59:36.293Z,0.40
2019-01-20T23:02:16.578Z,0.50
2019-01-20T23:04:56.993Z,0.60
2019-01-20T23:07:36.905Z,0.60
2019-01-20T23:10:16.941Z,0.70
2019-01-20T23:12:56.958Z,0.50
2019-01-20T23:15:36.890Z,0.40
2019-01-20T23:18:17.150Z,0.40
2019-01-20T23:20:57.214Z,0.40
2019-01-20T23:23:37.366Z,0.40
2019-01-20T23:26:17.308Z,0.40
2019-01-20T23:28:57.386Z,0.40
2019-01-20T23:31:37.676Z,0.40
2019-01-20T23:34:17.445Z,0.40
2019-01-20T23:36:57.540Z,0.30
2019-01-20T23:39:37.784Z,0.20
2019-01-20T23:42:18.071Z,0.20
2019-01-20T23:44:57.933Z,0.40
2019-01-20T23:47:37.999Z,0.10
2019-01-20T23:50:17.844Z,0.10
2019-01-20T23:52:57.797Z,0.30
2019-01-20T23:55:37.913Z,0.10
2019-01-20T23:58:18.002Z,0.20
